Time;durP1;ratioP1;P1;durP2;ratioP2;P2;SDS_P1;SDS_P2;PMS_P1;PMS_P2;Temp;Humidity;BMP_temperature;BMP_pressure;BME280_temperature;BME280_humidity;BME280_pressure;Samples;Min_cycle;Max_cycle;Signal;HPM_P1;HPM_P2
2022/01/13 00:01:46;;;;;;;23.83;16.80;;;;;;;-1.13;92.01;100383.53;5057185;28;20459;-71
2022/01/13 00:04:13;;;;;;;23.40;16.73;;;;;;;-1.05;92.30;100370.88;5057194;28;20533;-69
2022/01/13 00:06:41;;;;;;;23.50;17.37;;;;;;;-1.06;92.41;100365.75;5057094;28;20499;-69
2022/01/13 00:09:08;;;;;;;25.10;18.00;;;;;;;-0.99;92.53;100365.28;5056840;28;20422;-68
2022/01/13 00:11:35;;;;;;;23.27;17.60;;;;;;;-0.93;91.75;100356.28;5056762;28;20432;-71
2022/01/13 00:14:22;;;;;;;23.23;16.53;;;;;;;-0.89;91.47;100358.59;5056591;28;20427;-71
2022/01/13 00:19:48;;;;;;;22.67;17.03;;;;;;;-0.98;91.93;100369.59;5056703;28;20406;-72
2022/01/13 00:22:20;;;;;;;23.63;17.53;;;;;;;-0.99;91.55;100373.13;5056699;28;20595;-72
2022/01/13 00:24:50;;;;;;;22.10;17.20;;;;;;;-0.88;91.40;100380.34;5056396;28;20423;-68
2022/01/13 00:27:17;;;;;;;23.17;16.87;;;;;;;-0.86;90.88;100379.31;5056647;28;20473;-67
2022/01/13 00:29:45;;;;;;;23.17;17.23;;;;;;;-0.89;91.89;100382.09;5056404;28;20480;-68
2022/01/13 00:32:16;;;;;;;24.63;17.57;;;;;;;-0.89;92.49;100383.88;5056576;28;20442;-72
2022/01/13 00:34:44;;;;;;;22.43;17.20;;;;;;;-0.87;91.86;100385.47;5056693;28;20513;-72
2022/01/13 00:37:11;;;;;;;25.53;18.33;;;;;;;-1.01;91.78;100382.84;5056537;28;20466;-72
2022/01/13 00:39:37;;;;;;;23.00;17.57;;;;;;;-0.96;92.26;100391.22;5056641;28;20419;-70
2022/01/13 00:42:04;;;;;;;24.23;17.97;;;;;;;-0.97;91.90;100397.41;5056289;28;20484;-71
2022/01/13 00:44:36;;;;;;;24.67;18.40;;;;;;;-0.87;91.42;100393.31;5056518;28;20434;-69
2022/01/13 00:47:04;;;;;;;25.23;18.40;;;;;;;-0.89;91.12;100402.97;5056130;28;20779;-69
2022/01/13 00:49:31;;;;;;;23.07;18.33;;;;;;;-0.85;90.18;100403.66;5056451;28;20437;-72
2022/01/13 00:51:57;;;;;;;26.93;17.83;;;;;;;-0.84;90.81;100403.56;5056408;28;20414;-72
2022/01/13 00:54:24;;;;;;;23.43;18.10;;;;;;;-0.72;90.34;100410.66;5056058;28;20857;-71
2022/01/13 00:56:51;;;;;;;26.30;20.00;;;;;;;-0.72;88.53;100410.66;5056336;28;20462;-71
2022/01/13 00:59:17;;;;;;;26.93;20.13;;;;;;;-0.69;88.57;100396.56;5056395;28;20524;-71
2022/01/13 01:01:47;;;;;;;22.47;18.77;;;;;;;-0.67;87.33;100403.38;5055935;28;20465;-68
2022/01/13 01:04:14;;;;;;;26.60;19.77;;;;;;;-0.58;87.17;100405.44;5056565;28;20445;-68
2022/01/13 01:06:41;;;;;;;27.33;20.40;;;;;;;-0.58;87.58;100410.69;5055977;28;20749;-71
2022/01/13 01:09:13;;;;;;;26.93;21.30;;;;;;;-0.57;87.79;100409.78;5056004;28;20433;-72
2022/01/13 01:11:40;;;;;;;27.13;21.07;;;;;;;-0.62;87.23;100416.19;5055925;28;20857;-72
2022/01/13 01:14:08;;;;;;;29.30;22.50;;;;;;;-0.65;87.50;100419.81;5056028;28;20772;-72
2022/01/13 01:16:36;;;;;;;29.17;22.63;;;;;;;-0.67;87.65;100423.47;5056117;28;20462;-70
2022/01/13 01:19:06;;;;;;;28.00;21.33;;;;;;;-0.63;88.37;100417.94;5056107;28;20427;-70
2022/01/13 01:21:50;;;;;;;29.83;23.23;;;;;;;-0.69;87.28;100422.69;5056070;28;20423;-71
2022/01/13 01:24:42;;;;;;;27.93;21.47;;;;;;;-0.69;86.14;100418.31;5056170;28;20457;-71
2022/01/13 01:27:17;;;;;;;30.30;22.73;;;;;;;-0.67;87.19;100419.06;5058079;28;20462;-72
2022/01/13 01:29:52;;;;;;;28.73;21.90;;;;;;;-0.65;87.07;100425.06;5059824;28;20433;-72
2022/01/13 01:32:18;;;;;;;29.67;22.10;;;;;;;-0.65;87.42;100421.59;5060113;28;20519;-73
2022/01/13 01:37:30;;;;;;;29.93;21.87;;;;;;;-0.66;86.83;100431.22;5059407;28;20462;-70
2022/01/13 01:39:59;;;;;;;27.77;21.50;;;;;;;-0.59;86.04;100429.91;5059664;28;20422;-71
2022/01/13 01:42:27;;;;;;;30.37;21.40;;;;;;;-0.61;85.78;100423.94;5059474;28;20551;-72
2022/01/13 01:44:57;;;;;;;30.10;22.57;;;;;;;-0.68;86.65;100422.63;5059827;28;20429;-68
2022/01/13 01:47:27;;;;;;;28.03;21.60;;;;;;;-0.57;87.22;100422.84;5059674;28;20466;-68
2022/01/13 01:49:57;;;;;;;28.87;21.50;;;;;;;-0.61;86.66;100418.72;5059372;28;20437;-68
2022/01/13 01:52:25;;;;;;;29.50;22.47;;;;;;;-0.64;87.22;100428.50;5059387;28;20429;-68
2022/01/13 01:54:52;;;;;;;29.40;22.53;;;;;;;-0.66;86.49;100420.78;5059362;28;20996;-68
2022/01/13 01:57:20;;;;;;;29.50;22.63;;;;;;;-0.59;86.59;100418.59;5059273;28;20904;-68
2022/01/13 01:59:47;;;;;;;30.17;22.03;;;;;;;-0.63;85.74;100423.19;5059198;28;20430;-67
2022/01/13 02:02:15;;;;;;;32.33;21.80;;;;;;;-0.71;86.53;100425.41;5059476;28;20470;-72
2022/01/13 02:04:43;;;;;;;28.63;22.13;;;;;;;-0.76;86.73;100424.00;5059440;28;20437;-70
2022/01/13 02:07:10;;;;;;;28.00;21.40;;;;;;;-0.64;85.88;100424.13;5059393;28;20465;-68
2022/01/13 02:09:41;;;;;;;31.83;22.37;;;;;;;-0.72;86.59;100426.34;5059092;28;20921;-70
2022/01/13 02:12:12;;;;;;;29.90;21.50;;;;;;;-0.64;86.59;100404.97;5059042;28;20426;-70
2022/01/13 02:14:50;;;;;;;30.03;21.93;;;;;;;-0.65;86.68;100412.00;5059321;28;20434;-70
2022/01/13 02:17:23;;;;;;;30.70;22.93;;;;;;;-0.63;86.86;100404.06;5059157;28;20454;-70
2022/01/13 02:19:53;;;;;;;28.83;21.77;;;;;;;-0.70;86.56;100397.53;5059057;28;20449;-71
2022/01/13 02:22:19;;;;;;;31.90;23.50;;;;;;;-0.70;86.14;100387.91;5059027;28;20462;-70
2022/01/13 02:24:46;;;;;;;29.83;22.33;;;;;;;-0.63;86.91;100393.63;5059110;28;20430;-71
2022/01/13 02:27:12;;;;;;;30.33;23.00;;;;;;;-0.72;86.00;100387.16;5058975;28;20454;-72
2022/01/13 02:29:38;;;;;;;33.87;23.43;;;;;;;-0.80;86.34;100385.94;5058725;28;20442;-72
2022/01/13 02:32:06;;;;;;;31.97;22.93;;;;;;;-0.78;86.88;100378.84;5058886;28;20415;-72
2022/01/13 02:34:32;;;;;;;28.20;21.67;;;;;;;-0.75;85.58;100376.91;5058964;28;20422;-72
2022/01/13 02:36:59;;;;;;;29.57;23.13;;;;;;;-0.78;86.49;100381.47;5058699;28;20446;-69
2022/01/13 02:39:28;;;;;;;31.60;22.70;;;;;;;-0.78;85.80;100379.69;5057925;28;20422;-69
2022/01/13 02:41:55;;;;;;;29.40;22.90;;;;;;;-0.68;86.34;100375.59;5058301;28;20508;-69
2022/01/13 02:44:23;;;;;;;29.50;20.87;;;;;;;-0.79;85.91;100374.56;5058704;28;20441;-69
2022/01/13 02:47:20;;;;;;;28.77;22.57;;;;;;;-0.82;85.69;100385.19;5058661;28;20458;-69
2022/01/13 02:49:46;;;;;;;31.83;21.73;;;;;;;-0.85;86.70;100375.75;5058769;28;20753;-69
2022/01/13 02:52:13;;;;;;;30.47;22.37;;;;;;;-0.85;86.64;100373.16;5058607;28;20419;-69
2022/01/13 02:54:39;;;;;;;31.23;22.93;;;;;;;-0.84;86.91;100368.78;5058523;28;20445;-69
2022/01/13 02:57:06;;;;;;;29.83;21.43;;;;;;;-0.89;87.34;100371.66;5058470;28;20461;-69
2022/01/13 02:59:32;;;;;;;29.13;22.73;;;;;;;-0.89;86.76;100366.41;5058488;28;20427;-69
2022/01/13 03:01:59;;;;;;;28.60;22.10;;;;;;;-0.81;87.38;100372.03;5058372;28;20418;-69
2022/01/13 03:04:26;;;;;;;29.20;22.03;;;;;;;-0.86;86.83;100360.22;5058406;28;20423;-69
2022/01/13 03:06:52;;;;;;;29.07;22.33;;;;;;;-0.84;87.13;100361.78;5058264;28;20497;-69
2022/01/13 03:09:21;;;;;;;29.37;22.53;;;;;;;-0.79;87.54;100362.34;5058302;28;20418;-69
2022/01/13 03:11:48;;;;;;;31.87;22.03;;;;;;;-0.89;87.05;100358.59;5057936;28;20845;-69
2022/01/13 03:14:14;;;;;;;28.90;22.03;;;;;;;-0.84;87.95;100363.56;5058229;28;20422;-69
2022/01/13 03:16:44;;;;;;;28.80;22.17;;;;;;;-1.02;87.66;100373.31;5058068;28;20819;-69
2022/01/13 03:19:11;;;;;;;30.20;22.23;;;;;;;-0.97;87.41;100371.28;5058150;28;20720;-69
2022/01/13 03:21:38;;;;;;;30.23;23.13;;;;;;;-0.99;88.15;100360.06;5058035;28;20509;-69
2022/01/13 03:24:08;;;;;;;29.17;22.13;;;;;;;-1.02;87.63;100368.09;5057911;28;20462;-69
2022/01/13 03:26:35;;;;;;;30.17;21.83;;;;;;;-1.05;88.29;100364.81;5057811;28;20462;-69
2022/01/13 03:29:15;;;;;;;31.40;23.73;;;;;;;-1.11;87.78;100355.59;5057879;28;20423;-67
2022/01/13 03:31:46;;;;;;;33.50;24.17;;;;;;;-1.13;88.21;100351.41;5057810;28;20422;-67
2022/01/13 03:34:14;;;;;;;33.30;22.67;;;;;;;-1.09;88.40;100345.03;5057787;28;20698;-67
2022/01/13 03:36:42;;;;;;;30.90;22.33;;;;;;;-1.06;88.25;100344.88;5057366;28;20450;-71
2022/01/13 03:39:10;;;;;;;32.27;23.53;;;;;;;-1.12;87.95;100351.28;5057547;28;20418;-70
2022/01/13 03:41:38;;;;;;;28.13;21.17;;;;;;;-1.18;88.58;100348.19;5057459;28;20453;-69
2022/01/13 03:44:08;;;;;;;28.97;21.77;;;;;;;-1.24;88.25;100344.19;5057405;28;20474;-69
2022/01/13 03:46:38;;;;;;;30.03;22.23;;;;;;;-1.32;89.18;100356.84;5057420;28;20454;-69
2022/01/13 03:49:07;;;;;;;31.17;23.20;;;;;;;-1.36;89.09;100349.25;5056929;28;20418;-69
2022/01/13 03:51:57;;;;;;;31.63;23.13;;;;;;;-1.33;89.47;100352.56;5057464;28;20514;-69
2022/01/13 03:54:23;;;;;;;28.50;20.73;;;;;;;-1.29;88.69;100351.44;5057379;28;20422;-69
2022/01/13 03:57:15;;;;;;;29.27;21.00;;;;;;;-1.36;89.45;100349.25;5056930;28;20955;-69
2022/01/13 04:00:00;;;;;;;29.00;22.50;;;;;;;-1.33;89.44;100339.50;5056820;28;20430;-72
2022/01/13 04:02:27;;;;;;;27.80;20.90;;;;;;;-1.28;89.29;100342.69;5057020;28;20481;-72
2022/01/13 04:04:53;;;;;;;27.27;20.47;;;;;;;-1.20;89.47;100344.84;5057153;28;20419;-72
2022/01/13 04:07:24;;;;;;;29.73;20.90;;;;;;;-1.39;89.95;100347.66;5057062;28;20454;-72
2022/01/13 04:09:50;;;;;;;31.20;22.00;;;;;;;-1.30;90.14;100347.13;5056997;28;20418;-72
2022/01/13 04:12:20;;;;;;;29.77;21.40;;;;;;;-1.27;90.38;100351.34;5057005;28;20584;-69
2022/01/13 04:14:49;;;;;;;29.80;20.77;;;;;;;-1.33;89.98;100349.09;5056744;28;20434;-71
2022/01/13 04:17:18;;;;;;;28.67;21.73;;;;;;;-1.38;90.16;100349.38;5056404;28;20761;-71
2022/01/13 04:19:45;;;;;;;30.27;21.37;;;;;;;-1.30;90.69;100348.94;5056400;28;20864;-68
2022/01/13 04:22:12;;;;;;;28.97;20.47;;;;;;;-1.38;90.99;100343.31;5056606;28;20528;-72
2022/01/13 04:24:43;;;;;;;28.37;21.20;;;;;;;-1.30;90.54;100346.31;5056698;28;20441;-72
2022/01/13 04:27:10;;;;;;;27.93;20.17;;;;;;;-1.24;90.47;100343.34;5056227;28;20901;-72
2022/01/13 04:29:41;;;;;;;29.00;20.40;;;;;;;-1.18;90.96;100348.19;5056512;28;20422;-72
2022/01/13 04:32:08;;;;;;;26.40;20.47;;;;;;;-1.24;90.42;100340.72;5056488;28;20472;-72
2022/01/13 04:34:35;;;;;;;31.87;20.33;;;;;;;-1.19;89.63;100352.59;5056492;28;20426;-72
2022/01/13 04:37:02;;;;;;;27.33;20.40;;;;;;;-1.28;90.82;100353.13;5056455;28;20458;-72
2022/01/13 04:39:31;;;;;;;27.83;21.73;;;;;;;-1.24;91.29;100348.56;5056522;28;20430;-72
2022/01/13 04:41:57;;;;;;;30.13;21.03;;;;;;;-1.16;90.53;100351.56;5056144;28;20465;-72
2022/01/13 04:44:25;;;;;;;30.33;20.77;;;;;;;-1.22;91.26;100357.97;5056402;28;20472;-72
2022/01/13 04:46:55;;;;;;;28.53;21.00;;;;;;;-1.16;90.95;100352.41;5056423;28;20462;-67
2022/01/13 04:49:23;;;;;;;29.63;20.33;;;;;;;-1.02;90.78;100360.28;5056071;28;20431;-67
2022/01/13 04:51:50;;;;;;;29.30;21.20;;;;;;;-1.07;90.14;100364.91;5056807;28;20426;-67
2022/01/13 04:54:18;;;;;;;25.30;19.23;;;;;;;-1.01;90.02;100361.94;5056101;28;20426;-67
2022/01/13 04:57:04;;;;;;;28.00;20.17;;;;;;;-0.98;89.49;100364.34;5056183;28;20454;-67
2022/01/13 04:59:31;;;;;;;27.67;20.57;;;;;;;-1.12;89.25;100369.56;5056342;28;20711;-68
2022/01/13 05:02:00;;;;;;;29.47;20.43;;;;;;;-1.08;89.97;100376.28;5055053;28;20880;-68
2022/01/13 05:04:26;;;;;;;25.67;19.60;;;;;;;-1.16;89.57;100370.69;5056003;28;20823;-67
2022/01/13 05:06:53;;;;;;;28.50;21.33;;;;;;;-1.12;89.59;100374.78;5055930;28;20465;-67
2022/01/13 05:09:19;;;;;;;26.53;20.40;;;;;;;-1.07;89.56;100374.53;5056039;28;20426;-68
2022/01/13 05:11:46;;;;;;;29.43;20.50;;;;;;;-1.01;88.74;100384.59;5056038;28;20434;-67
2022/01/13 05:14:12;;;;;;;28.90;19.93;;;;;;;-0.92;89.32;100377.06;5055811;28;20430;-67
2022/01/13 05:16:52;;;;;;;28.87;20.10;;;;;;;-0.96;88.41;100372.97;5055544;28;20465;-67
2022/01/13 05:19:23;;;;;;;28.30;20.20;;;;;;;-0.95;88.72;100382.47;5055736;28;20495;-68
2022/01/13 05:22:15;;;;;;;27.20;20.70;;;;;;;-0.92;88.43;100371.84;5055591;28;20476;-69
2022/01/13 05:24:41;;;;;;;24.07;19.03;;;;;;;-0.83;89.09;100373.91;5055544;28;20519;-69
2022/01/13 05:27:08;;;;;;;24.50;18.17;;;;;;;-0.92;88.58;100371.00;5055586;28;20476;-70
2022/01/13 05:29:35;;;;;;;25.67;19.77;;;;;;;-0.91;88.84;100375.28;5055699;28;20485;-70
2022/01/13 05:32:01;;;;;;;25.73;19.20;;;;;;;-0.95;88.09;100392.91;5055685;28;20422;-70
2022/01/13 05:34:28;;;;;;;25.20;19.33;;;;;;;-0.84;88.89;100374.84;5055546;28;20422;-69
2022/01/13 05:36:54;;;;;;;27.10;18.77;;;;;;;-0.80;88.35;100376.31;5055387;28;20454;-69
2022/01/13 05:39:20;;;;;;;22.77;17.90;;;;;;;-0.81;88.61;100390.31;5055571;28;20497;-69
2022/01/13 05:41:47;;;;;;;26.23;19.30;;;;;;;-0.77;88.36;100386.59;5055321;28;20450;-69
2022/01/13 05:44:13;;;;;;;25.03;19.37;;;;;;;-0.89;89.02;100382.09;5055253;28;20481;-69
2022/01/13 05:46:39;;;;;;;24.27;19.10;;;;;;;-0.88;88.96;100382.94;5055273;28;20462;-69
2022/01/13 05:49:06;;;;;;;25.93;19.90;;;;;;;-0.97;87.65;100381.72;5055448;28;20427;-69
2022/01/13 05:51:33;;;;;;;26.30;19.33;;;;;;;-0.97;87.94;100389.56;5055459;28;20427;-68
2022/01/13 05:53:59;;;;;;;27.87;18.97;;;;;;;-0.90;88.07;100388.25;5055006;28;20953;-69
2022/01/13 05:56:26;;;;;;;26.93;19.93;;;;;;;-0.89;88.02;100399.53;5055118;28;20454;-70
2022/01/13 05:58:52;;;;;;;26.07;18.67;;;;;;;-0.99;88.72;100395.81;5055434;28;20441;-70
2022/01/13 06:01:19;;;;;;;24.43;18.93;;;;;;;-1.03;88.44;100397.72;5055273;28;20425;-70
2022/01/13 06:03:45;;;;;;;25.67;19.10;;;;;;;-1.01;88.21;100401.09;5054788;28;20465;-72
2022/01/13 06:06:11;;;;;;;26.40;19.27;;;;;;;-0.97;88.71;100396.53;5055137;28;20430;-72
2022/01/13 06:08:38;;;;;;;24.63;18.67;;;;;;;-0.98;88.40;100394.88;5055232;28;20434;-72
2022/01/13 06:11:04;;;;;;;24.23;18.43;;;;;;;-0.86;88.75;100402.81;5055193;28;20442;-72
2022/01/13 06:13:31;;;;;;;26.53;19.27;;;;;;;-0.98;88.11;100394.88;5057613;28;20421;-72
2022/01/13 06:15:57;;;;;;;26.50;18.67;;;;;;;-1.11;87.48;100394.75;5058616;28;20428;-68
2022/01/13 06:18:25;;;;;;;27.93;19.40;;;;;;;-1.03;88.34;100397.72;5058012;28;20450;-68
2022/01/13 06:20:52;;;;;;;24.67;19.27;;;;;;;-0.98;87.52;100395.69;5058622;28;20781;-72
2022/01/13 06:23:18;;;;;;;23.30;19.17;;;;;;;-0.99;87.56;100396.63;5058076;28;20462;-72
2022/01/13 06:25:45;;;;;;;26.37;19.93;;;;;;;-0.93;88.11;100391.06;5058195;28;20422;-72
2022/01/13 06:28:11;;;;;;;24.23;19.10;;;;;;;-0.92;87.81;100387.50;5057847;28;20457;-72
2022/01/13 06:30:38;;;;;;;25.20;18.93;;;;;;;-1.00;88.04;100384.50;5058520;28;20430;-68
2022/01/13 06:33:04;;;;;;;28.23;19.77;;;;;;;-1.10;88.16;100378.16;5058105;28;20420;-67
2022/01/13 06:35:31;;;;;;;27.17;19.43;;;;;;;-1.11;88.83;100376.47;5057614;28;20472;-67
2022/01/13 06:37:57;;;;;;;27.00;18.93;;;;;;;-1.07;88.66;100385.78;5057919;28;20464;-67
2022/01/13 06:40:24;;;;;;;26.00;18.57;;;;;;;-1.02;88.25;100386.38;5058143;28;20418;-67
2022/01/13 06:42:50;;;;;;;27.20;19.50;;;;;;;-1.11;88.56;100386.91;5057698;28;20772;-67
2022/01/13 06:45:17;;;;;;;25.87;18.20;;;;;;;-1.01;87.92;100398.50;5057991;28;20438;-67
2022/01/13 06:47:43;;;;;;;25.13;18.80;;;;;;;-1.09;88.96;100399.84;5058208;28;20450;-68
2022/01/13 06:50:11;;;;;;;28.87;19.77;;;;;;;-1.10;87.93;100393.81;5058140;28;20445;-70
2022/01/13 06:52:38;;;;;;;23.33;17.83;;;;;;;-1.06;88.07;100399.69;5057630;28;20423;-70
2022/01/13 06:55:06;;;;;;;24.47;19.07;;;;;;;-1.05;87.82;100407.44;5057982;28;20494;-71
2022/01/13 06:57:33;;;;;;;23.33;18.13;;;;;;;-1.05;87.64;100402.22;5057629;28;20450;-70
2022/01/13 07:00:00;;;;;;;26.77;19.50;;;;;;;-0.98;88.55;100390.47;5057890;28;20426;-71
2022/01/13 07:02:28;;;;;;;27.27;18.83;;;;;;;-1.10;87.85;100400.78;5058061;28;20509;-70
2022/01/13 07:04:55;;;;;;;23.87;18.87;;;;;;;-0.99;87.70;100409.69;5057736;28;20469;-71
2022/01/13 07:07:21;;;;;;;25.93;18.93;;;;;;;-0.95;87.96;100424.25;5057696;28;20473;-68
2022/01/13 07:09:47;;;;;;;25.80;18.20;;;;;;;-1.05;87.96;100427.47;5057894;28;20430;-68
2022/01/13 07:12:14;;;;;;;26.00;19.20;;;;;;;-1.05;87.74;100428.31;5057880;28;20418;-68
2022/01/13 07:14:40;;;;;;;25.77;19.30;;;;;;;-0.94;88.43;100441.56;5057590;28;20426;-72
2022/01/13 07:17:07;;;;;;;26.43;19.70;;;;;;;-0.86;88.01;100446.38;5057419;28;20458;-72
2022/01/13 07:19:33;;;;;;;27.10;19.63;;;;;;;-0.85;87.39;100446.25;5057626;28;20438;-72
2022/01/13 07:21:59;;;;;;;25.00;19.43;;;;;;;-0.81;86.82;100460.00;5068834;28;20433;-72
2022/01/13 07:24:26;;;;;;;26.20;18.73;;;;;;;-0.80;87.27;100461.69;5076717;28;20461;-72
2022/01/13 07:26:53;;;;;;;26.30;19.37;;;;;;;-0.78;86.58;100468.50;5076816;28;20453;-72
2022/01/13 07:29:20;;;;;;;24.10;19.00;;;;;;;-0.86;87.12;100465.47;5077024;28;20434;-67
2022/01/13 07:31:47;;;;;;;25.93;18.87;;;;;;;-0.89;86.75;100464.81;5058770;28;20447;-67
2022/01/13 07:34:13;;;;;;;28.60;18.53;;;;;;;-0.83;86.54;100460.09;5056655;28;20849;-68
2022/01/13 07:36:40;;;;;;;25.87;19.07;;;;;;;-0.95;86.83;100458.19;5056521;28;20466;-68
2022/01/13 07:39:07;;;;;;;23.47;18.97;;;;;;;-0.96;87.28;100458.25;5057380;28;20426;-69
2022/01/13 07:41:36;;;;;;;25.90;19.37;;;;;;;-0.96;86.51;100453.03;5056721;28;20893;-68
2022/01/13 07:44:03;;;;;;;25.73;17.80;;;;;;;-0.96;87.00;100461.72;5056708;28;20478;-67
2022/01/13 07:46:29;;;;;;;26.17;18.03;;;;;;;-0.94;86.90;100459.03;5056954;28;20465;-67
2022/01/13 07:48:55;;;;;;;26.63;18.90;;;;;;;-0.85;87.03;100461.94;5056872;28;20438;-67
2022/01/13 07:51:22;;;;;;;26.93;18.40;;;;;;;-0.84;86.99;100463.63;5056357;28;20430;-67
2022/01/13 07:53:49;;;;;;;29.10;17.90;;;;;;;-0.72;86.61;100468.13;5056436;28;20520;-67
2022/01/13 07:56:15;;;;;;;23.53;18.27;;;;;;;-0.71;86.15;100469.78;5056858;28;20427;-67
2022/01/13 07:58:43;;;;;;;25.97;18.93;;;;;;;-0.72;87.01;100467.31;5056795;28;20532;-67
2022/01/13 08:01:10;;;;;;;28.93;20.07;;;;;;;-0.69;85.99;100461.88;5056617;28;20854;-67
2022/01/13 08:03:36;;;;;;;24.33;17.83;;;;;;;-0.79;85.77;100461.59;5056386;28;20901;-67
2022/01/13 08:06:04;;;;;;;24.97;18.57;;;;;;;-0.81;85.20;100466.06;5056680;28;20441;-66
2022/01/13 08:08:32;;;;;;;22.90;18.37;;;;;;;-0.82;85.50;100466.13;5056722;28;20438;-67
2022/01/13 08:10:58;;;;;;;26.87;19.53;;;;;;;-0.73;84.69;100466.44;5056732;28;20465;-66
2022/01/13 08:13:25;;;;;;;24.53;17.70;;;;;;;-0.63;85.18;100472.00;5056421;28;20854;-66
2022/01/13 08:15:54;;;;;;;24.50;18.60;;;;;;;-0.66;84.74;100466.94;5056396;28;20871;-67
2022/01/13 08:21:04;;;;;;;28.33;18.80;;;;;;;-0.47;84.30;100477.97;5056315;28;20476;-72
2022/01/13 08:23:31;;;;;;;31.67;19.83;;;;;;;-0.54;84.05;100472.25;5056462;28;20477;-72
2022/01/13 08:25:58;;;;;;;26.17;18.17;;;;;;;-0.46;84.83;100469.19;5056550;28;20517;-73
2022/01/13 08:28:27;;;;;;;28.90;19.70;;;;;;;-0.41;84.88;100457.53;5056313;28;20493;-66
2022/01/13 08:30:54;;;;;;;30.10;19.30;;;;;;;-0.47;84.73;100472.75;5056220;28;20419;-66
2022/01/13 08:33:22;;;;;;;25.13;18.80;;;;;;;-0.44;85.02;100467.34;5056314;28;20441;-66
2022/01/13 08:35:49;;;;;;;24.93;18.07;;;;;;;-0.57;84.80;100472.47;5055381;28;20438;-67
2022/01/13 08:38:18;;;;;;;24.17;19.50;;;;;;;-0.53;84.85;100463.50;5056257;28;20461;-72
2022/01/13 08:40:47;;;;;;;26.90;18.20;;;;;;;-0.41;85.60;100467.13;5056318;28;20434;-72
2022/01/13 08:43:15;;;;;;;25.40;18.43;;;;;;;-0.38;85.00;100459.13;5055674;28;20453;-72
2022/01/13 08:45:43;;;;;;;21.80;17.47;;;;;;;-0.34;84.46;100466.72;5056053;28;20434;-72
2022/01/13 08:48:10;;;;;;;24.50;18.40;;;;;;;-0.20;84.28;100466.72;5056083;28;20458;-72
2022/01/13 08:50:36;;;;;;;23.87;17.50;;;;;;;-0.35;84.46;100462.38;5055892;28;20434;-72
2022/01/13 08:53:03;;;;;;;21.27;17.00;;;;;;;-0.30;84.81;100468.19;5056041;28;20734;-72
2022/01/13 08:55:29;;;;;;;20.43;17.00;;;;;;;0.03;83.66;100463.53;5056247;28;20433;-72
2022/01/13 08:57:56;;;;;;;23.80;16.47;;;;;;;-0.01;83.68;100462.03;5055703;28;20750;-71
2022/01/13 09:00:23;;;;;;;23.20;17.00;;;;;;;-0.01;83.51;100464.66;5056076;28;20504;-72
2022/01/13 09:02:49;;;;;;;22.83;16.80;;;;;;;0.00;83.31;100466.31;5056113;28;20457;-72
2022/01/13 09:05:18;;;;;;;22.43;16.50;;;;;;;-0.14;84.20;100455.88;5055978;28;20485;-72
2022/01/13 09:07:45;;;;;;;21.50;16.60;;;;;;;-0.02;83.74;100454.28;5055569;28;20451;-72
2022/01/13 09:10:13;;;;;;;22.13;16.97;;;;;;;0.10;83.58;100462.19;5055888;28;20441;-72
2022/01/13 09:12:40;;;;;;;21.67;16.37;;;;;;;0.06;84.06;100458.09;5055930;28;20433;-71
2022/01/13 09:15:16;;;;;;;22.73;15.77;;;;;;;0.10;83.98;100454.34;5055957;28;20434;-68
2022/01/13 09:17:44;;;;;;;23.53;15.77;;;;;;;0.27;84.92;100455.09;5055725;28;20462;-68
2022/01/13 09:20:15;;;;;;;17.50;13.60;;;;;;;0.30;84.00;100436.59;5055829;28;20464;-68
2022/01/13 09:22:43;;;;;;;18.67;13.93;;;;;;;0.51;83.52;100440.44;5055819;28;20686;-69
2022/01/13 09:25:10;;;;;;;18.10;13.20;;;;;;;0.87;81.90;100435.44;5055753;28;20469;-69
2022/01/13 09:27:39;;;;;;;13.30;11.17;;;;;;;0.98;81.92;100443.47;5055681;28;20450;-68
2022/01/13 09:30:06;;;;;;;13.53;11.57;;;;;;;0.99;82.08;100440.72;5055462;28;20663;-68
2022/01/13 09:32:32;;;;;;;14.60;11.33;;;;;;;0.79;83.51;100448.19;5055979;28;20186;-68
2022/01/13 09:34:59;;;;;;;13.83;11.40;;;;;;;0.72;83.52;100447.75;5055738;28;20441;-68
2022/01/13 09:37:25;;;;;;;12.53;10.33;;;;;;;0.53;84.20;100436.78;5055603;28;20450;-69
2022/01/13 09:39:52;;;;;;;11.87;10.10;;;;;;;0.33;84.68;100442.47;5055475;28;20527;-68
2022/01/13 09:42:18;;;;;;;14.33;11.63;;;;;;;0.22;84.70;100439.66;5055368;28;20220;-66
2022/01/13 09:44:47;;;;;;;15.70;11.60;;;;;;;0.28;84.77;100433.22;5055002;28;20481;-66
2022/01/13 09:47:14;;;;;;;16.43;12.10;;;;;;;0.27;84.37;100442.81;5056297;28;20554;-66
2022/01/13 09:49:44;;;;;;;21.03;13.00;;;;;;;0.28;84.20;100441.06;5059584;28;20438;-65
2022/01/13 09:52:10;;;;;;;16.60;13.20;;;;;;;0.33;83.96;100440.66;5059574;28;20426;-66
2022/01/13 09:54:37;;;;;;;15.83;12.20;;;;;;;0.22;83.68;100437.91;5059570;28;20419;-66
2022/01/13 09:57:03;;;;;;;17.70;12.27;;;;;;;0.28;84.23;100439.31;5059075;28;20462;-66
2022/01/13 09:59:30;;;;;;;19.53;12.97;;;;;;;0.21;84.37;100442.41;5059347;28;20430;-66
2022/01/13 10:01:56;;;;;;;19.90;14.20;;;;;;;0.17;83.81;100443.53;5059307;28;20467;-66
2022/01/13 10:04:22;;;;;;;20.97;14.73;;;;;;;0.22;84.70;100437.06;5059067;28;20489;-66
2022/01/13 10:06:49;;;;;;;20.83;14.30;;;;;;;0.45;83.46;100436.44;5059109;28;20457;-66
2022/01/13 10:09:16;;;;;;;20.27;13.90;;;;;;;0.49;82.53;100437.91;5059015;28;20438;-66
2022/01/13 10:11:53;;;;;;;20.70;14.83;;;;;;;0.38;83.67;100436.94;5058746;28;20438;-66
2022/01/13 10:17:06;;;;;;;23.57;14.80;;;;;;;0.51;83.01;100432.59;5058195;28;20460;-66
2022/01/13 10:19:42;;;;;;;17.47;13.30;;;;;;;0.49;82.71;100426.63;5059003;28;20202;-72
2022/01/13 10:22:23;;;;;;;18.93;14.00;;;;;;;0.60;82.14;100421.53;5058709;28;20208;-72
2022/01/13 10:24:52;;;;;;;18.23;13.50;;;;;;;0.63;82.57;100422.16;5058696;28;20462;-73
2022/01/13 10:27:29;;;;;;;19.43;14.27;;;;;;;0.74;82.17;100429.31;5058422;28;20271;-73
2022/01/13 10:30:07;;;;;;;18.13;13.57;;;;;;;0.67;81.24;100428.06;5058296;28;20861;-73
2022/01/13 10:32:33;;;;;;;18.27;14.17;;;;;;;0.66;81.19;100426.34;5058533;28;20200;-73
2022/01/13 10:35:09;;;;;;;22.07;15.17;;;;;;;0.80;80.28;100423.72;5058604;28;20442;-73
2022/01/13 10:37:38;;;;;;;19.03;14.03;;;;;;;0.66;80.90;100428.97;5058291;28;20458;-71
2022/01/13 10:40:23;;;;;;;18.10;14.53;;;;;;;0.96;80.10;100426.97;5058278;28;20440;-69
2022/01/13 10:43:12;;;;;;;20.03;14.90;;;;;;;0.79;80.24;100427.25;5058041;28;20560;-68
2022/01/13 10:45:55;;;;;;;20.20;13.60;;;;;;;0.83;79.64;100429.59;5058370;28;20473;-68
2022/01/13 10:48:23;;;;;;;20.67;15.43;;;;;;;0.83;80.46;100420.88;5058357;28;20540;-68
2022/01/13 10:50:58;;;;;;;20.57;14.83;;;;;;;0.75;80.34;100425.75;5058695;28;20734;-66
2022/01/13 10:53:29;;;;;;;21.77;14.90;;;;;;;0.79;79.80;100433.34;5058240;28;20440;-66
2022/01/13 10:55:59;;;;;;;18.77;14.70;;;;;;;0.87;80.40;100431.06;5058263;28;20201;-72
2022/01/13 10:58:37;;;;;;;20.30;15.27;;;;;;;0.89;79.49;100429.16;5057249;28;20202;-72
2022/01/13 11:01:06;;;;;;;18.57;13.97;;;;;;;0.91;79.42;100421.22;5057700;28;20189;-68
2022/01/13 11:03:34;;;;;;;18.40;12.80;;;;;;;1.05;78.96;100424.59;5057999;28;20208;-69
2022/01/13 11:06:04;;;;;;;15.93;12.83;;;;;;;1.26;78.61;100420.53;5057778;28;20324;-68
2022/01/13 11:08:41;;;;;;;17.43;13.13;;;;;;;1.28;78.46;100426.53;5058041;28;20299;-68
2022/01/13 11:11:17;;;;;;;16.40;13.53;;;;;;;1.28;78.28;100420.44;5057578;28;20604;-71
2022/01/13 11:13:52;;;;;;;17.13;13.60;;;;;;;1.28;78.08;100417.81;5057764;28;20190;-72
2022/01/13 11:16:19;;;;;;;18.13;13.47;;;;;;;1.43;77.96;100412.38;5057590;28;20322;-72
2022/01/13 11:18:45;;;;;;;16.40;13.37;;;;;;;1.39;77.88;100410.91;5057558;28;20510;-72
2022/01/13 11:21:12;;;;;;;18.73;13.73;;;;;;;1.43;78.23;100419.38;5057816;28;20209;-72
2022/01/13 11:23:39;;;;;;;17.00;13.07;;;;;;;1.63;75.62;100421.50;5057579;28;20193;-73
2022/01/13 11:26:07;;;;;;;16.77;12.97;;;;;;;1.59;76.66;100426.13;5057122;28;20221;-73
2022/01/13 11:28:36;;;;;;;18.53;13.17;;;;;;;1.64;77.23;100428.41;5057464;28;20213;-72
2022/01/13 11:31:02;;;;;;;18.70;13.10;;;;;;;1.67;76.83;100426.41;5057431;28;20196;-72